createdAt,value
2019-01-16T00:00:12.571Z,3.30
2019-01-16T00:02:53.616Z,3.43
2019-01-16T00:05:49.221Z,3.63
2019-01-16T00:08:40.030Z,3.20
2019-01-16T00:11:20.173Z,3.30
2019-01-16T00:14:14.382Z,4.13
2019-01-16T00:16:51.404Z,3.77
2019-01-16T00:19:33.469Z,4.03
2019-01-16T00:22:18.034Z,4.00
2019-01-16T00:25:23.674Z,4.30
2019-01-16T00:28:14.572Z,4.20
2019-01-16T00:31:02.447Z,4.40
2019-01-16T00:33:39.062Z,5.43
2019-01-16T00:36:25.801Z,4.87
2019-01-16T00:39:19.739Z,3.90
2019-01-16T00:42:02.161Z,4.90
2019-01-16T00:44:48.593Z,4.57
2019-01-16T00:47:37.803Z,5.10
2019-01-16T00:50:26.003Z,5.53
2019-01-16T00:53:13.857Z,5.00
2019-01-16T00:56:07.849Z,4.80
2019-01-16T00:58:48.229Z,4.97
2019-01-16T01:01:35.945Z,5.03
2019-01-16T01:04:36.201Z,4.90
2019-01-16T01:07:24.251Z,5.37
2019-01-16T01:10:17.207Z,5.30
2019-01-16T01:13:08.102Z,5.47
2019-01-16T01:15:47.985Z,4.60
2019-01-16T01:18:40.641Z,4.73
2019-01-16T01:21:30.325Z,5.43
2019-01-16T01:24:20.989Z,5.43
2019-01-16T01:27:14.689Z,4.67
2019-01-16T01:29:51.529Z,5.50
2019-01-16T01:32:57.645Z,4.87
2019-01-16T01:35:42.356Z,5.17
2019-01-16T01:38:34.826Z,4.93
2019-01-16T01:41:21.793Z,5.00
2019-01-16T01:44:08.873Z,5.03
2019-01-16T01:46:46.817Z,5.13
2019-01-16T01:49:28.094Z,5.63
2019-01-16T01:52:14.935Z,5.53
2019-01-16T01:54:56.409Z,5.63
2019-01-16T01:57:56.449Z,5.00
2019-01-16T02:00:42.937Z,5.80
2019-01-16T02:03:33.001Z,5.30
2019-01-16T02:06:15.333Z,5.60
2019-01-16T02:08:54.225Z,5.33
2019-01-16T02:11:51.545Z,6.20
2019-01-16T02:14:48.397Z,5.90
2019-01-16T02:17:36.341Z,6.57
2019-01-16T02:20:25.378Z,7.43
2019-01-16T02:23:18.034Z,7.13
2019-01-16T02:26:10.485Z,8.03
2019-01-16T02:28:54.201Z,8.03
2019-01-16T02:31:29.573Z,8.97
2019-01-16T02:34:29.460Z,8.70
2019-01-16T02:37:09.409Z,9.87
2019-01-16T02:39:49.280Z,9.73
2019-01-16T02:42:28.708Z,9.20
2019-01-16T02:45:16.029Z,9.00
2019-01-16T02:47:58.942Z,9.07
2019-01-16T02:50:38.834Z,8.80
2019-01-16T02:53:19.664Z,9.47
2019-01-16T02:56:06.202Z,8.90
2019-01-16T02:58:51.338Z,8.33
2019-01-16T03:01:48.246Z,9.00
2019-01-16T03:04:51.253Z,8.37
2019-01-16T03:07:44.653Z,7.30
2019-01-16T03:10:50.701Z,7.60
2019-01-16T03:13:56.773Z,6.53
2019-01-16T03:16:33.959Z,6.87
2019-01-16T03:19:20.465Z,7.03
2019-01-16T03:22:02.877Z,6.83
2019-01-16T03:24:40.095Z,6.03
2019-01-16T03:27:27.917Z,5.80
2019-01-16T03:30:02.731Z,6.97
2019-01-16T03:32:53.312Z,7.57
2019-01-16T03:35:53.158Z,7.60
2019-01-16T03:38:50.194Z,7.57
2019-01-16T03:41:29.529Z,9.10
2019-01-16T03:44:18.487Z,8.33
2019-01-16T03:47:10.851Z,9.77
2019-01-16T03:49:58.699Z,9.33
2019-01-16T03:52:37.409Z,10.37
2019-01-16T03:55:24.538Z,10.80
2019-01-16T03:58:11.450Z,10.47
2019-01-16T04:00:58.089Z,10.23
2019-01-16T04:03:43.732Z,10.20
2019-01-16T04:06:31.446Z,9.97
2019-01-16T04:09:34.735Z,10.30
2019-01-16T04:12:31.896Z,11.27
2019-01-16T04:15:23.946Z,10.70
2019-01-16T04:18:20.713Z,10.63
2019-01-16T04:20:59.807Z,11.53
2019-01-16T04:23:55.216Z,11.23
2019-01-16T04:26:41.509Z,11.83
2019-01-16T04:29:25.567Z,12.63
2019-01-16T04:32:19.497Z,12.77
2019-01-16T04:35:09.752Z,12.20
2019-01-16T04:38:02.528Z,12.73
2019-01-16T04:40:44.462Z,12.70
2019-01-16T04:43:44.413Z,14.60
2019-01-16T04:46:31.170Z,13.43
2019-01-16T04:49:14.326Z,13.37
2019-01-16T04:52:14.525Z,13.60
2019-01-16T04:55:05.493Z,14.53
2019-01-16T04:58:02.835Z,13.67
2019-01-16T05:00:49.471Z,13.97
2019-01-16T05:03:49.693Z,12.27
2019-01-16T05:06:34.110Z,12.43
2019-01-16T05:09:29.697Z,11.93
2019-01-16T05:12:29.616Z,10.83
2019-01-16T05:15:14.316Z,10.40
2019-01-16T05:18:00.885Z,11.77
2019-01-16T05:20:40.845Z,11.50
2019-01-16T05:23:23.472Z,11.47
2019-01-16T05:26:14.121Z,11.63
2019-01-16T05:29:00.673Z,11.07
2019-01-16T05:31:48.536Z,11.43
2019-01-16T05:34:36.378Z,11.20
2019-01-16T05:37:23.209Z,12.50
2019-01-16T05:40:12.473Z,12.57
2019-01-16T05:43:15.665Z,11.80
2019-01-16T05:46:02.110Z,12.17
2019-01-16T05:48:40.519Z,12.87
2019-01-16T05:51:38.331Z,12.63
2019-01-16T05:54:31.646Z,13.63
2019-01-16T05:57:11.449Z,12.77
2019-01-16T05:59:48.203Z,14.37
2019-01-16T06:02:34.749Z,12.17
2019-01-16T06:05:34.965Z,12.57
2019-01-16T06:08:17.952Z,12.23
2019-01-16T06:10:59.514Z,13.67
2019-01-16T06:13:49.367Z,12.67
2019-01-16T06:16:40.049Z,12.40
2019-01-16T06:19:18.565Z,12.70
2019-01-16T06:22:05.414Z,12.23
2019-01-16T06:24:59.533Z,11.80
2019-01-16T06:27:57.893Z,13.13
2019-01-16T06:30:41.438Z,11.50
2019-01-16T06:33:28.093Z,11.33
2019-01-16T06:36:28.360Z,12.30
2019-01-16T06:39:06.510Z,10.47
2019-01-16T06:41:53.358Z,11.03
2019-01-16T06:44:40.243Z,10.70
2019-01-16T06:47:18.265Z,10.73
2019-01-16T06:50:04.634Z,10.20
2019-01-16T06:52:50.142Z,10.67
2019-01-16T06:55:28.965Z,10.43
2019-01-16T06:58:25.965Z,11.90
2019-01-16T07:01:29.089Z,10.83
2019-01-16T07:04:31.947Z,9.53
2019-01-16T07:07:19.778Z,10.03
2019-01-16T07:10:25.725Z,10.70
2019-01-16T07:13:11.394Z,9.77
2019-01-16T07:15:58.022Z,9.73
2019-01-16T07:18:55.202Z,10.63
2019-01-16T07:21:43.118Z,9.97
2019-01-16T07:24:46.362Z,10.27
2019-01-16T07:27:37.121Z,10.77
2019-01-16T07:30:22.125Z,11.17
2019-01-16T07:33:08.876Z,10.43
2019-01-16T07:36:00.001Z,10.43
2019-01-16T07:38:46.609Z,9.90
2019-01-16T07:41:52.956Z,9.77
2019-01-16T07:44:36.551Z,9.23
2019-01-16T07:47:23.433Z,9.87
2019-01-16T07:50:23.409Z,9.43
2019-01-16T07:53:04.144Z,10.03
2019-01-16T07:55:57.823Z,10.03
2019-01-16T07:59:04.109Z,9.40
2019-01-16T08:01:49.469Z,9.13
2019-01-16T08:04:37.806Z,8.60
2019-01-16T08:07:25.725Z,8.53
2019-01-16T08:10:08.438Z,9.10
2019-01-16T08:13:01.629Z,8.63
2019-01-16T08:15:55.455Z,8.80
2019-01-16T08:18:41.628Z,8.70
2019-01-16T08:21:33.717Z,8.43
2019-01-16T08:24:21.553Z,9.60
2019-01-16T08:27:01.900Z,8.37
2019-01-16T08:29:52.793Z,9.50
2019-01-16T08:32:31.233Z,9.57
2019-01-16T08:35:06.733Z,9.23
2019-01-16T08:37:53.941Z,8.93
2019-01-16T08:40:40.797Z,8.10
2019-01-16T08:43:27.488Z,7.70
2019-01-16T08:46:18.661Z,7.87
2019-01-16T08:49:05.375Z,6.07
2019-01-16T08:51:52.101Z,6.00
2019-01-16T08:54:43.003Z,6.23
2019-01-16T08:57:33.735Z,6.23
2019-01-16T09:00:30.741Z,6.57
2019-01-16T09:03:24.462Z,5.87
2019-01-16T09:06:13.666Z,6.20
2019-01-16T09:09:19.901Z,6.10
2019-01-16T09:12:16.341Z,5.50
2019-01-16T09:15:12.797Z,5.37
2019-01-16T09:17:52.619Z,4.77
2019-01-16T09:20:43.608Z,4.77
2019-01-16T09:23:49.766Z,5.07
2019-01-16T09:26:46.689Z,4.77
2019-01-16T09:29:28.738Z,4.70
2019-01-16T09:32:22.657Z,4.90
2019-01-16T09:35:10.515Z,4.80
2019-01-16T09:37:58.361Z,4.43
2019-01-16T09:40:44.801Z,4.43
2019-01-16T09:43:31.829Z,4.20
2019-01-16T09:46:22.778Z,4.17
2019-01-16T09:49:08.079Z,4.70
2019-01-16T09:51:55.970Z,4.47
2019-01-16T09:54:39.797Z,4.33
2019-01-16T09:57:26.397Z,5.23
2019-01-16T10:00:13.269Z,4.87
2019-01-16T10:03:06.349Z,4.50
2019-01-16T10:05:52.993Z,4.53
2019-01-16T10:08:40.857Z,4.83
2019-01-16T10:11:25.586Z,5.70
2019-01-16T10:14:12.243Z,4.83
2019-01-16T10:16:53.249Z,4.90
2019-01-16T10:19:39.745Z,6.37
2019-01-16T10:22:26.829Z,5.17
2019-01-16T10:25:13.681Z,5.27
2019-01-16T10:28:07.826Z,5.53
2019-01-16T10:30:59.486Z,6.43
2019-01-16T10:33:48.460Z,6.20
2019-01-16T10:36:35.402Z,6.00
2019-01-16T10:39:18.005Z,6.47
2019-01-16T10:41:59.005Z,6.37
2019-01-16T10:44:55.639Z,5.93
2019-01-16T10:47:42.182Z,6.07
2019-01-16T10:50:29.605Z,6.63
2019-01-16T10:53:17.417Z,6.13
2019-01-16T10:56:03.962Z,6.50
2019-01-16T10:58:54.897Z,5.80
2019-01-16T11:01:37.390Z,6.27
2019-01-16T11:04:25.301Z,6.33
2019-01-16T11:07:16.338Z,6.00
2019-01-16T11:10:04.811Z,5.70
2019-01-16T11:12:51.766Z,5.77
2019-01-16T11:15:45.815Z,6.50
2019-01-16T11:18:32.376Z,5.77
2019-01-16T11:21:18.276Z,5.83
2019-01-16T11:24:04.993Z,6.40
2019-01-16T11:26:52.805Z,7.10
2019-01-16T11:29:46.809Z,6.90
2019-01-16T11:32:40.459Z,6.70
2019-01-16T11:35:22.462Z,7.10
2019-01-16T11:38:16.213Z,7.60
2019-01-16T11:41:00.401Z,7.20
2019-01-16T11:43:57.553Z,7.07
2019-01-16T11:46:48.542Z,7.20
2019-01-16T11:49:33.901Z,7.17
2019-01-16T11:52:19.404Z,6.63
2019-01-16T11:55:05.884Z,7.13
2019-01-16T11:58:02.770Z,7.67
2019-01-16T12:00:48.017Z,7.47
2019-01-16T12:03:42.845Z,8.27
2019-01-16T12:06:29.837Z,8.70
2019-01-16T12:09:16.573Z,8.77
2019-01-16T12:12:00.898Z,7.93
2019-01-16T12:14:39.900Z,7.97
2019-01-16T12:17:29.800Z,8.53
2019-01-16T12:20:07.859Z,8.50
2019-01-16T12:22:49.295Z,9.27
2019-01-16T12:25:33.443Z,9.03
2019-01-16T12:28:21.384Z,9.00
2019-01-16T12:31:08.051Z,9.40
2019-01-16T12:33:58.945Z,11.05
2019-01-16T12:36:45.385Z,9.33
2019-01-16T12:39:31.890Z,9.47
2019-01-16T12:42:25.290Z,8.17
2019-01-16T12:45:11.865Z,8.17
2019-01-16T12:48:05.824Z,7.53
2019-01-16T12:51:08.815Z,7.73
2019-01-16T12:53:47.944Z,7.83
2019-01-16T12:56:41.594Z,7.47
2019-01-16T12:59:28.308Z,6.97
2019-01-16T13:02:12.478Z,8.27
2019-01-16T13:05:00.391Z,7.93
2019-01-16T13:07:42.922Z,7.80
2019-01-16T13:10:30.957Z,7.50
2019-01-16T13:13:27.643Z,8.07
2019-01-16T13:16:14.395Z,7.63
2019-01-16T13:19:08.096Z,7.90
2019-01-16T13:22:11.128Z,7.47
2019-01-16T13:24:49.913Z,7.60
2019-01-16T13:27:32.887Z,6.50
2019-01-16T13:30:23.841Z,6.67
2019-01-16T13:33:10.700Z,6.87
2019-01-16T13:35:57.561Z,6.73
2019-01-16T13:38:39.565Z,6.70
2019-01-16T13:41:15.201Z,6.53
2019-01-16T13:44:01.805Z,6.43
2019-01-16T13:46:52.757Z,7.03
2019-01-16T13:49:55.782Z,5.77
2019-01-16T13:52:42.377Z,6.50
2019-01-16T13:55:29.377Z,6.87
2019-01-16T13:58:15.237Z,6.93
2019-01-16T14:01:15.492Z,6.13
2019-01-16T14:04:02.318Z,6.97
2019-01-16T14:06:56.649Z,6.80
2019-01-16T14:09:43.157Z,7.27
2019-01-16T14:12:33.008Z,6.97
2019-01-16T14:15:19.522Z,7.23
2019-01-16T14:17:58.532Z,6.73
2019-01-16T14:20:56.691Z,6.43
2019-01-16T14:23:50.833Z,7.30
2019-01-16T14:26:37.489Z,6.40
2019-01-16T14:29:15.985Z,6.40
2019-01-16T14:32:16.354Z,6.13
2019-01-16T14:35:09.086Z,6.30
2019-01-16T14:37:55.649Z,6.23
2019-01-16T14:40:43.661Z,6.63
2019-01-16T14:43:31.546Z,6.47
2019-01-16T14:46:25.485Z,6.33
2019-01-16T14:49:13.697Z,5.43
2019-01-16T14:52:00.952Z,6.10
2019-01-16T14:54:38.442Z,6.83
2019-01-16T14:57:21.862Z,6.33
2019-01-16T15:00:14.736Z,6.10
2019-01-16T15:03:08.636Z,5.60
2019-01-16T15:05:55.870Z,5.87
2019-01-16T15:08:43.796Z,5.70
2019-01-16T15:11:20.088Z,6.27
2019-01-16T15:14:07.072Z,5.87
2019-01-16T15:17:04.141Z,5.57
2019-01-16T15:19:42.737Z,5.83
2019-01-16T15:22:21.596Z,5.57
2019-01-16T15:25:14.041Z,5.70
2019-01-16T15:27:49.877Z,5.13
2019-01-16T15:30:36.485Z,4.87
2019-01-16T15:33:26.689Z,5.07
2019-01-16T15:36:08.081Z,5.23
2019-01-16T15:38:53.905Z,5.70
2019-01-16T15:41:40.710Z,5.00
2019-01-16T15:44:29.444Z,5.70
2019-01-16T15:47:20.305Z,5.37
2019-01-16T15:50:18.665Z,4.83
2019-01-16T15:53:18.498Z,5.03
2019-01-16T15:56:05.227Z,5.23
2019-01-16T15:58:41.197Z,6.37
2019-01-16T16:01:23.140Z,5.90
2019-01-16T16:04:17.026Z,5.40
2019-01-16T16:07:09.494Z,5.00
2019-01-16T16:09:44.497Z,5.30
2019-01-16T16:12:35.169Z,4.40
2019-01-16T16:15:17.407Z,4.40
2019-01-16T16:18:04.217Z,4.97
2019-01-16T16:21:00.904Z,5.07
2019-01-16T16:23:48.892Z,4.70
2019-01-16T16:26:39.878Z,4.87
2019-01-16T16:29:26.376Z,4.87
2019-01-16T16:32:04.619Z,4.37
2019-01-16T16:34:52.121Z,4.57
2019-01-16T16:37:39.097Z,4.83
2019-01-16T16:40:20.069Z,4.70
2019-01-16T16:43:00.457Z,4.23
2019-01-16T16:45:47.197Z,4.27
2019-01-16T16:48:30.090Z,4.23
2019-01-16T16:51:17.910Z,4.73
2019-01-16T16:54:00.455Z,5.13
2019-01-16T16:56:47.154Z,4.10
2019-01-16T16:59:35.118Z,4.57
2019-01-16T17:02:28.818Z,4.67
2019-01-16T17:05:25.646Z,4.73
2019-01-16T17:08:17.725Z,4.90
2019-01-16T17:10:56.025Z,5.73
2019-01-16T17:13:52.929Z,5.93
2019-01-16T17:16:59.217Z,5.80
2019-01-16T17:19:46.080Z,5.70
2019-01-16T17:22:34.017Z,5.63
2019-01-16T17:25:11.577Z,6.27
2019-01-16T17:27:55.132Z,6.27
2019-01-16T17:30:49.090Z,6.60
2019-01-16T17:33:38.511Z,6.80
2019-01-16T17:36:25.353Z,6.50
2019-01-16T17:39:12.289Z,7.70
2019-01-16T17:41:58.493Z,7.00
2019-01-16T17:44:50.792Z,6.67
2019-01-16T17:47:31.794Z,7.00
2019-01-16T17:50:12.086Z,6.97
2019-01-16T17:52:58.601Z,7.50
2019-01-16T17:55:52.650Z,8.07
2019-01-16T17:58:40.492Z,7.43
2019-01-16T18:01:27.197Z,7.23
2019-01-16T18:04:18.120Z,7.20
2019-01-16T18:07:18.092Z,7.50
2019-01-16T18:10:04.537Z,8.03
2019-01-16T18:12:51.491Z,8.50
2019-01-16T18:15:38.169Z,8.03
2019-01-16T18:18:16.631Z,8.87
2019-01-16T18:21:10.607Z,8.63
2019-01-16T18:24:04.571Z,9.03
2019-01-16T18:26:51.313Z,8.20
2019-01-16T18:29:38.193Z,8.77
2019-01-16T18:32:26.025Z,8.97
2019-01-16T18:35:22.460Z,8.83
2019-01-16T18:38:17.614Z,8.67
2019-01-16T18:41:01.814Z,7.70
2019-01-16T18:43:48.609Z,8.43
2019-01-16T18:46:36.748Z,9.37
2019-01-16T18:49:11.721Z,8.97
2019-01-16T18:51:51.673Z,8.17
2019-01-16T18:54:57.737Z,9.17
2019-01-16T18:57:35.934Z,9.47
2019-01-16T19:00:27.839Z,9.60
2019-01-16T19:03:14.318Z,10.03
2019-01-16T19:06:06.681Z,9.53
2019-01-16T19:08:58.542Z,10.20
2019-01-16T19:11:51.985Z,10.30
2019-01-16T19:14:35.484Z,9.57
2019-01-16T19:17:32.856Z,10.20
2019-01-16T19:20:35.973Z,9.00
2019-01-16T19:23:16.633Z,9.77
2019-01-16T19:26:03.472Z,8.40
2019-01-16T19:28:54.315Z,10.13
2019-01-16T19:31:40.853Z,9.63
2019-01-16T19:34:18.054Z,10.07
2019-01-16T19:37:04.581Z,8.80
2019-01-16T19:39:51.853Z,9.90
2019-01-16T19:42:39.855Z,10.37
2019-01-16T19:45:28.072Z,9.67
2019-01-16T19:48:05.998Z,10.33
2019-01-16T19:50:49.971Z,10.23
2019-01-16T19:53:42.376Z,9.67
2019-01-16T19:56:33.684Z,10.10
2019-01-16T19:59:20.553Z,9.37
2019-01-16T20:02:07.261Z,9.70
2019-01-16T20:04:49.501Z,10.17
2019-01-16T20:07:46.538Z,9.90
2019-01-16T20:10:39.629Z,9.13
2019-01-16T20:13:24.557Z,10.70
2019-01-16T20:16:01.986Z,9.30
2019-01-16T20:18:59.097Z,10.17
2019-01-16T20:21:37.157Z,10.63
2019-01-16T20:24:28.303Z,9.90
2019-01-16T20:27:10.854Z,9.43
2019-01-16T20:30:01.877Z,10.00
2019-01-16T20:32:55.758Z,10.70
2019-01-16T20:35:42.297Z,9.27
2019-01-16T20:38:19.590Z,9.87
2019-01-16T20:41:16.409Z,9.27
2019-01-16T20:44:03.287Z,8.83
2019-01-16T20:46:55.392Z,9.17
2019-01-16T20:49:40.205Z,8.83
2019-01-16T20:52:31.169Z,9.47
2019-01-16T20:55:22.619Z,8.83
2019-01-16T20:58:13.297Z,10.47
2019-01-16T21:00:59.861Z,10.50
2019-01-16T21:03:47.801Z,10.10
2019-01-16T21:06:34.626Z,9.53
2019-01-16T21:09:39.153Z,9.10
2019-01-16T21:12:36.045Z,9.47
2019-01-16T21:15:17.393Z,10.07
2019-01-16T21:18:06.205Z,9.77
2019-01-16T21:20:57.297Z,9.57
2019-01-16T21:23:44.760Z,10.87
2019-01-16T21:26:31.460Z,9.83
2019-01-16T21:29:19.385Z,9.33
2019-01-16T21:32:09.809Z,10.27
2019-01-16T21:34:53.943Z,10.80
2019-01-16T21:37:40.197Z,9.47
2019-01-16T21:40:32.061Z,9.90
2019-01-16T21:43:26.018Z,9.93
2019-01-16T21:46:17.030Z,9.97
2019-01-16T21:49:13.958Z,9.93
2019-01-16T21:52:14.070Z,10.27
2019-01-16T21:55:05.025Z,10.87
2019-01-16T21:57:52.541Z,9.77
2019-01-16T22:00:58.865Z,10.20
2019-01-16T22:03:45.365Z,10.00
2019-01-16T22:06:23.181Z,10.10
2019-01-16T22:09:15.143Z,10.07
2019-01-16T22:11:58.346Z,10.07
2019-01-16T22:14:46.838Z,9.17
2019-01-16T22:17:33.669Z,9.57
2019-01-16T22:20:14.294Z,9.70
2019-01-16T22:23:02.137Z,5.33
2019-01-16T22:25:49.145Z,4.63
2019-01-16T22:28:36.142Z,4.37
2019-01-16T22:31:19.591Z,4.30
2019-01-16T22:34:04.495Z,3.50
2019-01-16T22:37:04.753Z,3.27
2019-01-16T22:39:52.568Z,2.90
2019-01-16T22:42:30.274Z,3.60
2019-01-16T22:45:24.195Z,2.83
2019-01-16T22:48:24.009Z,3.03
2019-01-16T22:51:20.845Z,2.43
2019-01-16T22:54:20.521Z,1.90
2019-01-16T22:57:14.537Z,1.90
2019-01-16T23:00:02.953Z,1.93
2019-01-16T23:02:42.167Z,1.53
2019-01-16T23:05:29.095Z,1.50
2019-01-16T23:08:04.273Z,0.80
2019-01-16T23:10:41.421Z,0.80
2019-01-16T23:13:29.290Z,1.00
2019-01-16T23:16:20.187Z,0.90
2019-01-16T23:19:09.309Z,1.13
2019-01-16T23:21:55.987Z,1.00
2019-01-16T23:24:42.761Z,1.00
2019-01-16T23:27:29.553Z,0.90
2019-01-16T23:30:11.384Z,0.77
2019-01-16T23:33:00.339Z,0.70
2019-01-16T23:35:43.011Z,0.80
2019-01-16T23:38:39.501Z,0.70
2019-01-16T23:41:26.118Z,0.67
2019-01-16T23:44:12.863Z,0.80
2019-01-16T23:46:55.293Z,0.90
2019-01-16T23:49:32.473Z,0.80
2019-01-16T23:52:34.930Z,1.23
2019-01-16T23:55:29.727Z,0.90
2019-01-16T23:58:21.260Z,0.57
